sensor_id;sensor_type;location;lat;lon;timestamp;pressure;altitude;pressure_sealevel;temperature;humidity
47742;BME280;33504;52.066;6.096;2022-08-21T00:00:20;101633.45;;;19.10;42.31
47742;BME280;33504;52.066;6.096;2022-08-21T00:02:52;101631.71;;;19.04;42.39
47742;BME280;33504;52.066;6.096;2022-08-21T00:05:20;101628.86;;;18.97;42.44
47742;BME280;33504;52.066;6.096;2022-08-21T00:07:48;101629.14;;;18.68;42.53
47742;BME280;33504;52.066;6.096;2022-08-21T00:10:17;101627.98;;;19.09;42.73
47742;BME280;33504;52.066;6.096;2022-08-21T00:12:45;101627.14;;;19.04;42.79
47742;BME280;33504;52.066;6.096;2022-08-21T00:15:13;101624.42;;;19.02;42.77
47742;BME280;33504;52.066;6.096;2022-08-21T00:17:41;101625.79;;;18.96;42.73
47742;BME280;33504;52.066;6.096;2022-08-21T00:20:10;101627.57;;;18.93;42.82
47742;BME280;33504;52.066;6.096;2022-08-21T00:22:38;101630.38;;;18.60;42.82
47742;BME280;33504;52.066;6.096;2022-08-21T00:25:07;101632.23;;;18.82;42.89
47742;BME280;33504;52.066;6.096;2022-08-21T00:27:35;101629.21;;;18.48;43.03
47742;BME280;33504;52.066;6.096;2022-08-21T00:30:04;101623.78;;;18.70;43.05
47742;BME280;33504;52.066;6.096;2022-08-21T00:32:31;101622.75;;;18.64;43.09
47742;BME280;33504;52.066;6.096;2022-08-21T00:34:59;101622.36;;;18.60;43.22
47742;BME280;33504;52.066;6.096;2022-08-21T00:37:25;101623.41;;;18.55;43.36
47742;BME280;33504;52.066;6.096;2022-08-21T00:39:52;101624.63;;;18.57;43.27
47742;BME280;33504;52.066;6.096;2022-08-21T00:42:20;101623.12;;;18.27;43.23
47742;BME280;33504;52.066;6.096;2022-08-21T00:44:49;101624.05;;;18.74;43.23
47742;BME280;33504;52.066;6.096;2022-08-21T00:47:18;101625.48;;;18.49;43.14
47742;BME280;33504;52.066;6.096;2022-08-21T00:49:45;101623.08;;;18.46;43.14
47742;BME280;33504;52.066;6.096;2022-08-21T00:52:17;101622.93;;;18.64;43.22
47742;BME280;33504;52.066;6.096;2022-08-21T00:54:46;101622.20;;;18.38;43.30
47742;BME280;33504;52.066;6.096;2022-08-21T00:57:16;101619.69;;;18.33;43.17
47742;BME280;33504;52.066;6.096;2022-08-21T00:59:48;101616.06;;;18.74;43.29
47742;BME280;33504;52.066;6.096;2022-08-21T01:02:17;101611.05;;;18.50;43.38
47742;BME280;33504;52.066;6.096;2022-08-21T01:04:44;101608.00;;;18.28;43.36
47742;BME280;33504;52.066;6.096;2022-08-21T01:07:12;101604.15;;;18.72;43.43
47742;BME280;33504;52.066;6.096;2022-08-21T01:09:39;101605.89;;;18.27;43.35
47742;BME280;33504;52.066;6.096;2022-08-21T01:12:07;101605.56;;;18.26;43.42
47742;BME280;33504;52.066;6.096;2022-08-21T01:14:35;101606.37;;;18.25;43.42
47742;BME280;33504;52.066;6.096;2022-08-21T01:17:03;101606.36;;;18.26;43.37
47742;BME280;33504;52.066;6.096;2022-08-21T01:19:31;101606.47;;;18.25;43.42
47742;BME280;33504;52.066;6.096;2022-08-21T01:21:58;101609.36;;;18.22;43.38
47742;BME280;33504;52.066;6.096;2022-08-21T01:24:26;101609.51;;;18.21;43.38
47742;BME280;33504;52.066;6.096;2022-08-21T01:26:54;101609.75;;;18.20;43.39
47742;BME280;33504;52.066;6.096;2022-08-21T01:29:29;101614.75;;;18.44;43.32
47742;BME280;33504;52.066;6.096;2022-08-21T01:31:58;101618.33;;;18.43;43.40
47742;BME280;33504;52.066;6.096;2022-08-21T01:34:26;101619.35;;;18.22;43.44
47742;BME280;33504;52.066;6.096;2022-08-21T01:36:53;101622.00;;;18.21;43.40
47742;BME280;33504;52.066;6.096;2022-08-21T01:39:20;101621.43;;;18.21;43.36
47742;BME280;33504;52.066;6.096;2022-08-21T01:41:47;101618.50;;;18.23;43.38
47742;BME280;33504;52.066;6.096;2022-08-21T01:44:14;101616.65;;;18.25;43.40
47742;BME280;33504;52.066;6.096;2022-08-21T01:46:41;101614.96;;;18.23;43.44
47742;BME280;33504;52.066;6.096;2022-08-21T01:49:08;101619.64;;;18.19;43.52
47742;BME280;33504;52.066;6.096;2022-08-21T01:51:35;101615.02;;;18.14;43.50
47742;BME280;33504;52.066;6.096;2022-08-21T01:54:02;101609.91;;;18.13;43.58
47742;BME280;33504;52.066;6.096;2022-08-21T01:56:36;101611.01;;;18.14;43.54
47742;BME280;33504;52.066;6.096;2022-08-21T01:59:03;101611.15;;;18.11;43.53
47742;BME280;33504;52.066;6.096;2022-08-21T02:01:31;101607.13;;;18.11;43.53
47742;BME280;33504;52.066;6.096;2022-08-21T02:03:58;101604.98;;;18.10;43.62
47742;BME280;33504;52.066;6.096;2022-08-21T02:06:26;101605.14;;;18.34;43.57
47742;BME280;33504;52.066;6.096;2022-08-21T02:08:53;101601.57;;;18.35;43.56
47742;BME280;33504;52.066;6.096;2022-08-21T02:11:20;101599.47;;;18.36;43.58
47742;BME280;33504;52.066;6.096;2022-08-21T02:13:48;101597.85;;;18.12;43.57
47742;BME280;33504;52.066;6.096;2022-08-21T02:16:15;101595.07;;;18.08;43.72
47742;BME280;33504;52.066;6.096;2022-08-21T02:18:42;101592.54;;;18.05;43.75
47742;BME280;33504;52.066;6.096;2022-08-21T02:21:10;101590.37;;;18.23;43.75
47742;BME280;33504;52.066;6.096;2022-08-21T02:23:36;101593.23;;;18.43;43.88
47742;BME280;33504;52.066;6.096;2022-08-21T02:26:05;101593.81;;;18.17;43.99
47742;BME280;33504;52.066;6.096;2022-08-21T02:28:33;101593.19;;;17.96;43.97
47742;BME280;33504;52.066;6.096;2022-08-21T02:31:01;101595.24;;;18.17;43.89
47742;BME280;33504;52.066;6.096;2022-08-21T02:33:29;101594.95;;;17.93;43.91
47742;BME280;33504;52.066;6.096;2022-08-21T02:35:57;101596.30;;;18.11;44.07
47742;BME280;33504;52.066;6.096;2022-08-21T02:38:27;101593.14;;;18.10;43.97
47742;BME280;33504;52.066;6.096;2022-08-21T02:40:55;101594.52;;;18.04;44.11
47742;BME280;33504;52.066;6.096;2022-08-21T02:43:24;101591.74;;;18.24;44.13
47742;BME280;33504;52.066;6.096;2022-08-21T02:45:53;101591.09;;;17.97;44.08
47742;BME280;33504;52.066;6.096;2022-08-21T02:48:22;101586.64;;;18.14;44.12
47742;BME280;33504;52.066;6.096;2022-08-21T02:50:53;101585.76;;;17.67;44.15
47742;BME280;33504;52.066;6.096;2022-08-21T02:53:20;101585.16;;;18.06;44.34
47742;BME280;33504;52.066;6.096;2022-08-21T02:55:49;101585.35;;;17.62;44.36
47742;BME280;33504;52.066;6.096;2022-08-21T02:58:20;101584.56;;;17.82;44.34
47742;BME280;33504;52.066;6.096;2022-08-21T03:00:48;101583.33;;;17.57;44.44
47742;BME280;33504;52.066;6.096;2022-08-21T03:03:16;101582.66;;;17.76;44.37
47742;BME280;33504;52.066;6.096;2022-08-21T03:05:44;101584.18;;;17.93;44.51
47742;BME280;33504;52.066;6.096;2022-08-21T03:08:13;101584.11;;;17.70;44.58
47742;BME280;33504;52.066;6.096;2022-08-21T03:10:43;101583.10;;;17.44;44.57
47742;BME280;33504;52.066;6.096;2022-08-21T03:13:12;101580.21;;;17.85;44.52
47742;BME280;33504;52.066;6.096;2022-08-21T03:15:39;101580.01;;;17.58;44.78
47742;BME280;33504;52.066;6.096;2022-08-21T03:18:07;101576.27;;;17.75;44.77
47742;BME280;33504;52.066;6.096;2022-08-21T03:20:36;101574.82;;;17.73;44.77
47742;BME280;33504;52.066;6.096;2022-08-21T03:23:05;101571.49;;;17.46;44.79
47742;BME280;33504;52.066;6.096;2022-08-21T03:25:33;101569.40;;;17.70;44.83
47742;BME280;33504;52.066;6.096;2022-08-21T03:28:00;101569.41;;;17.66;44.81
47742;BME280;33504;52.066;6.096;2022-08-21T03:30:28;101570.65;;;17.63;44.78
47742;BME280;33504;52.066;6.096;2022-08-21T03:32:56;101573.61;;;17.63;44.82
47742;BME280;33504;52.066;6.096;2022-08-21T03:35:24;101571.12;;;17.61;44.91
47742;BME280;33504;52.066;6.096;2022-08-21T03:37:51;101572.71;;;17.61;44.86
47742;BME280;33504;52.066;6.096;2022-08-21T03:40:19;101572.11;;;17.59;44.77
47742;BME280;33504;52.066;6.096;2022-08-21T03:42:47;101572.83;;;17.56;44.81
47742;BME280;33504;52.066;6.096;2022-08-21T03:45:17;101572.84;;;17.53;44.86
47742;BME280;33504;52.066;6.096;2022-08-21T03:47:54;101572.54;;;17.29;44.96
47742;BME280;33504;52.066;6.096;2022-08-21T03:50:22;101573.54;;;17.47;44.96
47742;BME280;33504;52.066;6.096;2022-08-21T03:52:50;101571.63;;;17.44;44.93
47742;BME280;33504;52.066;6.096;2022-08-21T03:55:17;101570.88;;;17.69;44.97
47742;BME280;33504;52.066;6.096;2022-08-21T03:57:44;101572.43;;;17.18;45.03
47742;BME280;33504;52.066;6.096;2022-08-21T04:00:14;101573.78;;;17.14;45.05
47742;BME280;33504;52.066;6.096;2022-08-21T04:02:42;101574.44;;;17.34;45.02
47742;BME280;33504;52.066;6.096;2022-08-21T04:05:10;101574.13;;;17.29;45.04
47742;BME280;33504;52.066;6.096;2022-08-21T04:07:38;101574.54;;;17.24;45.10
47742;BME280;33504;52.066;6.096;2022-08-21T04:10:07;101572.18;;;17.45;45.08
47742;BME280;33504;52.066;6.096;2022-08-21T04:12:35;101573.38;;;17.38;45.17
47742;BME280;33504;52.066;6.096;2022-08-21T04:15:02;101570.59;;;17.09;45.25
47742;BME280;33504;52.066;6.096;2022-08-21T04:17:30;101566.06;;;17.04;45.32
47742;BME280;33504;52.066;6.096;2022-08-21T04:19:56;101567.65;;;17.02;45.37
47742;BME280;33504;52.066;6.096;2022-08-21T04:22:24;101567.00;;;17.26;45.40
47742;BME280;33504;52.066;6.096;2022-08-21T04:24:51;101567.45;;;17.23;45.51
47742;BME280;33504;52.066;6.096;2022-08-21T04:27:17;101568.05;;;17.42;45.62
47742;BME280;33504;52.066;6.096;2022-08-21T04:29:45;101569.74;;;16.90;45.67
47742;BME280;33504;52.066;6.096;2022-08-21T04:32:11;101568.61;;;16.85;45.75
47742;BME280;33504;52.066;6.096;2022-08-21T04:34:38;101567.76;;;17.10;45.65
47742;BME280;33504;52.066;6.096;2022-08-21T04:37:05;101566.53;;;17.12;45.56
47742;BME280;33504;52.066;6.096;2022-08-21T04:39:31;101565.25;;;16.84;45.58
47742;BME280;33504;52.066;6.096;2022-08-21T04:41:58;101562.65;;;16.84;45.69
47742;BME280;33504;52.066;6.096;2022-08-21T04:44:25;101561.67;;;16.61;45.69
47742;BME280;33504;52.066;6.096;2022-08-21T04:46:52;101561.01;;;17.08;45.60
47742;BME280;33504;52.066;6.096;2022-08-21T04:49:19;101562.77;;;17.05;45.70
47742;BME280;33504;52.066;6.096;2022-08-21T04:51:46;101565.98;;;17.04;45.73
47742;BME280;33504;52.066;6.096;2022-08-21T04:54:17;101568.07;;;17.05;45.78
47742;BME280;33504;52.066;6.096;2022-08-21T04:56:49;101571.39;;;17.09;45.71
47742;BME280;33504;52.066;6.096;2022-08-21T04:59:21;101570.91;;;17.10;45.88
47742;BME280;33504;52.066;6.096;2022-08-21T05:01:50;101572.52;;;16.84;45.87
47742;BME280;33504;52.066;6.096;2022-08-21T05:04:21;101572.99;;;17.34;45.84
47742;BME280;33504;52.066;6.096;2022-08-21T05:06:51;101571.09;;;16.85;45.82
47742;BME280;33504;52.066;6.096;2022-08-21T05:09:20;101569.03;;;16.87;45.79
47742;BME280;33504;52.066;6.096;2022-08-21T05:11:48;101572.13;;;16.90;45.84
47742;BME280;33504;52.066;6.096;2022-08-21T05:14:15;101572.09;;;16.91;45.87
47742;BME280;33504;52.066;6.096;2022-08-21T05:16:43;101568.20;;;16.94;45.81
47742;BME280;33504;52.066;6.096;2022-08-21T05:19:10;101567.95;;;16.97;45.75
47742;BME280;33504;52.066;6.096;2022-08-21T05:21:41;101572.04;;;16.98;45.73
47742;BME280;33504;52.066;6.096;2022-08-21T05:24:08;101571.67;;;16.99;45.86
47742;BME280;33504;52.066;6.096;2022-08-21T05:26:34;101572.60;;;17.02;45.85
47742;BME280;33504;52.066;6.096;2022-08-21T05:29:01;101576.12;;;17.31;46.00
47742;BME280;33504;52.066;6.096;2022-08-21T05:31:28;101578.98;;;17.32;46.01
47742;BME280;33504;52.066;6.096;2022-08-21T05:33:55;101581.73;;;17.08;46.08
47742;BME280;33504;52.066;6.096;2022-08-21T05:36:23;101585.22;;;17.13;46.10
47742;BME280;33504;52.066;6.096;2022-08-21T05:38:51;101588.89;;;17.19;46.06
47742;BME280;33504;52.066;6.096;2022-08-21T05:41:18;101592.83;;;17.51;46.17
47742;BME280;33504;52.066;6.096;2022-08-21T05:43:45;101592.50;;;17.33;45.96
47742;BME280;33504;52.066;6.096;2022-08-21T05:46:11;101592.86;;;17.40;45.80
47742;BME280;33504;52.066;6.096;2022-08-21T05:48:39;101594.31;;;17.46;45.64
47742;BME280;33504;52.066;6.096;2022-08-21T05:51:09;101592.17;;;17.52;45.55
47742;BME280;33504;52.066;6.096;2022-08-21T05:53:37;101591.06;;;17.59;45.40
47742;BME280;33504;52.066;6.096;2022-08-21T05:56:05;101591.86;;;17.45;45.36
47742;BME280;33504;52.066;6.096;2022-08-21T05:58:33;101589.44;;;17.54;45.69
47742;BME280;33504;52.066;6.096;2022-08-21T06:01:01;101589.47;;;17.60;46.16
47742;BME280;33504;52.066;6.096;2022-08-21T06:03:33;101589.36;;;17.96;46.16
47742;BME280;33504;52.066;6.096;2022-08-21T06:06:00;101585.71;;;17.86;46.13
47742;BME280;33504;52.066;6.096;2022-08-21T06:08:28;101585.15;;;17.80;46.18
47742;BME280;33504;52.066;6.096;2022-08-21T06:10:57;101585.47;;;18.26;46.57
47742;BME280;33504;52.066;6.096;2022-08-21T06:13:25;101584.09;;;18.38;46.51
47742;BME280;33504;52.066;6.096;2022-08-21T06:16:02;101581.05;;;17.87;46.89
47742;BME280;33504;52.066;6.096;2022-08-21T06:18:30;101577.50;;;17.91;47.00
47742;BME280;33504;52.066;6.096;2022-08-21T06:20:57;101574.82;;;18.35;46.68
47742;BME280;33504;52.066;6.096;2022-08-21T06:23:24;101575.41;;;18.40;46.21
47742;BME280;33504;52.066;6.096;2022-08-21T06:25:51;101571.55;;;18.63;45.83
47742;BME280;33504;52.066;6.096;2022-08-21T06:28:18;101571.69;;;18.61;46.13
47742;BME280;33504;52.066;6.096;2022-08-21T06:30:45;101574.52;;;18.88;45.74
47742;BME280;33504;52.066;6.096;2022-08-21T06:33:12;101581.03;;;18.57;46.02
47742;BME280;33504;52.066;6.096;2022-08-21T06:35:40;101580.70;;;18.88;45.64
47742;BME280;33504;52.066;6.096;2022-08-21T06:38:08;101583.33;;;18.97;45.44
47742;BME280;33504;52.066;6.096;2022-08-21T06:40:35;101582.69;;;19.38;45.05
47742;BME280;33504;52.066;6.096;2022-08-21T06:43:08;101584.70;;;18.95;45.41
47742;BME280;33504;52.066;6.096;2022-08-21T06:45:36;101588.01;;;19.27;45.40
47742;BME280;33504;52.066;6.096;2022-08-21T06:48:03;101585.61;;;19.06;44.86
47742;BME280;33504;52.066;6.096;2022-08-21T06:50:30;101585.82;;;19.33;44.78
47742;BME280;33504;52.066;6.096;2022-08-21T06:53:00;101584.00;;;19.57;44.48
47742;BME280;33504;52.066;6.096;2022-08-21T06:55:28;101587.81;;;19.73;44.22
47742;BME280;33504;52.066;6.096;2022-08-21T06:57:55;101584.23;;;19.86;43.82
47742;BME280;33504;52.066;6.096;2022-08-21T07:00:22;101583.83;;;19.96;43.69
47742;BME280;33504;52.066;6.096;2022-08-21T07:02:49;101584.40;;;19.86;43.80
47742;BME280;33504;52.066;6.096;2022-08-21T07:05:17;101589.61;;;20.21;43.44
47742;BME280;33504;52.066;6.096;2022-08-21T07:07:44;101588.92;;;20.45;43.29
47742;BME280;33504;52.066;6.096;2022-08-21T07:10:11;101584.65;;;20.76;42.94
47742;BME280;33504;52.066;6.096;2022-08-21T07:12:38;101590.06;;;20.68;42.93
47742;BME280;33504;52.066;6.096;2022-08-21T07:15:06;101585.33;;;20.58;42.76
47742;BME280;33504;52.066;6.096;2022-08-21T07:17:33;101578.68;;;20.84;41.93
47742;BME280;33504;52.066;6.096;2022-08-21T07:20:00;101579.91;;;21.26;41.75
47742;BME280;33504;52.066;6.096;2022-08-21T07:22:27;101577.45;;;21.48;41.34
47742;BME280;33504;52.066;6.096;2022-08-21T07:24:54;101575.82;;;21.99;40.47
47742;BME280;33504;52.066;6.096;2022-08-21T07:27:21;101583.08;;;21.85;40.42
47742;BME280;33504;52.066;6.096;2022-08-21T07:29:49;101581.44;;;21.91;39.76
47742;BME280;33504;52.066;6.096;2022-08-21T07:32:16;101578.61;;;21.65;39.94
47742;BME280;33504;52.066;6.096;2022-08-21T07:34:43;101573.08;;;22.27;39.30
47742;BME280;33504;52.066;6.096;2022-08-21T07:37:11;101569.88;;;22.56;38.93
47742;BME280;33504;52.066;6.096;2022-08-21T07:39:38;101570.17;;;22.72;37.88
47742;BME280;33504;52.066;6.096;2022-08-21T07:42:06;101569.17;;;22.80;38.03
47742;BME280;33504;52.066;6.096;2022-08-21T07:44:33;101571.47;;;22.33;37.42
47742;BME280;33504;52.066;6.096;2022-08-21T07:47:00;101567.04;;;22.96;37.43
47742;BME280;33504;52.066;6.096;2022-08-21T07:49:28;101559.44;;;22.61;37.69
47742;BME280;33504;52.066;6.096;2022-08-21T07:51:55;101562.20;;;22.38;37.97
47742;BME280;33504;52.066;6.096;2022-08-21T07:54:22;101562.20;;;22.62;37.75
47742;BME280;33504;52.066;6.096;2022-08-21T07:56:50;101559.87;;;23.03;37.31
47742;BME280;33504;52.066;6.096;2022-08-21T07:59:16;101563.00;;;22.92;37.04
47742;BME280;33504;52.066;6.096;2022-08-21T08:01:44;101558.24;;;23.47;36.47
47742;BME280;33504;52.066;6.096;2022-08-21T08:04:11;101558.05;;;23.69;35.95
47742;BME280;33504;52.066;6.096;2022-08-21T08:06:38;101558.15;;;23.83;35.29
47742;BME280;33504;52.066;6.096;2022-08-21T08:09:06;101555.87;;;24.05;35.19
47742;BME280;33504;52.066;6.096;2022-08-21T08:11:33;101551.40;;;24.35;34.73
47742;BME280;33504;52.066;6.096;2022-08-21T08:14:00;101560.86;;;24.73;34.06
47742;BME280;33504;52.066;6.096;2022-08-21T08:16:28;101558.34;;;24.48;33.69
47742;BME280;33504;52.066;6.096;2022-08-21T08:18:55;101559.30;;;24.50;33.49
47742;BME280;33504;52.066;6.096;2022-08-21T08:21:23;101559.75;;;24.46;33.68
47742;BME280;33504;52.066;6.096;2022-08-21T08:23:50;101564.20;;;24.36;33.43
47742;BME280;33504;52.066;6.096;2022-08-21T08:26:17;101557.36;;;24.94;33.19
47742;BME280;33504;52.066;6.096;2022-08-21T08:28:45;101561.27;;;24.85;33.50
47742;BME280;33504;52.066;6.096;2022-08-21T08:31:12;101560.21;;;24.51;34.12
47742;BME280;33504;52.066;6.096;2022-08-21T08:33:39;101561.20;;;24.34;34.36
47742;BME280;33504;52.066;6.096;2022-08-21T08:36:13;101553.29;;;24.76;34.63
47742;BME280;33504;52.066;6.096;2022-08-21T08:38:40;101556.11;;;25.01;34.89
47742;BME280;33504;52.066;6.096;2022-08-21T08:41:12;101550.50;;;25.08;35.05
47742;BME280;33504;52.066;6.096;2022-08-21T08:43:42;101552.38;;;24.97;35.11
47742;BME280;33504;52.066;6.096;2022-08-21T08:46:13;101547.60;;;25.75;34.33
47742;BME280;33504;52.066;6.096;2022-08-21T08:48:48;101547.67;;;25.26;33.87
47742;BME280;33504;52.066;6.096;2022-08-21T08:51:21;101543.61;;;25.80;34.22
47742;BME280;33504;52.066;6.096;2022-08-21T08:53:52;101538.64;;;25.92;33.77
47742;BME280;33504;52.066;6.096;2022-08-21T08:56:29;101537.15;;;25.59;34.30
47742;BME280;33504;52.066;6.096;2022-08-21T08:59:02;101536.30;;;25.97;33.57
47742;BME280;33504;52.066;6.096;2022-08-21T09:01:32;101541.42;;;26.19;33.23
47742;BME280;33504;52.066;6.096;2022-08-21T09:03:59;101543.65;;;25.80;33.69
47742;BME280;33504;52.066;6.096;2022-08-21T09:06:40;101538.11;;;26.43;32.60
47742;BME280;33504;52.066;6.096;2022-08-21T09:09:22;101543.61;;;26.72;33.10
47742;BME280;33504;52.066;6.096;2022-08-21T09:11:57;101538.70;;;26.85;32.40
47742;BME280;33504;52.066;6.096;2022-08-21T09:14:32;101536.12;;;27.13;31.65
47742;BME280;33504;52.066;6.096;2022-08-21T09:17:17;101539.78;;;27.06;31.68
47742;BME280;33504;52.066;6.096;2022-08-21T09:19:58;101536.86;;;27.22;31.84
47742;BME280;33504;52.066;6.096;2022-08-21T09:22:38;101537.71;;;27.90;30.64
47742;BME280;33504;52.066;6.096;2022-08-21T09:25:15;101538.69;;;27.58;30.99
47742;BME280;33504;52.066;6.096;2022-08-21T09:27:45;101530.26;;;27.65;30.37
47742;BME280;33504;52.066;6.096;2022-08-21T09:30:13;101531.31;;;27.61;30.14
47742;BME280;33504;52.066;6.096;2022-08-21T09:32:40;101532.41;;;27.67;30.40
47742;BME280;33504;52.066;6.096;2022-08-21T09:35:11;101529.14;;;27.55;31.15
47742;BME280;33504;52.066;6.096;2022-08-21T09:37:50;101524.63;;;27.78;30.62
47742;BME280;33504;52.066;6.096;2022-08-21T09:40:26;101524.97;;;27.40;30.07
47742;BME280;33504;52.066;6.096;2022-08-21T09:42:55;101525.56;;;27.73;29.87
47742;BME280;33504;52.066;6.096;2022-08-21T09:45:23;101526.06;;;28.12;30.05
47742;BME280;33504;52.066;6.096;2022-08-21T09:47:50;101528.67;;;28.15;28.76
47742;BME280;33504;52.066;6.096;2022-08-21T09:50:21;101529.06;;;28.03;28.30
47742;BME280;33504;52.066;6.096;2022-08-21T09:52:53;101532.77;;;28.13;28.61
47742;BME280;33504;52.066;6.096;2022-08-21T09:55:30;101532.29;;;28.02;28.87
47742;BME280;33504;52.066;6.096;2022-08-21T09:57:59;101538.23;;;28.91;27.76
47742;BME280;33504;52.066;6.096;2022-08-21T10:00:30;101535.56;;;29.06;27.67
47742;BME280;33504;52.066;6.096;2022-08-21T10:03:09;101536.78;;;28.96;28.08
47742;BME280;33504;52.066;6.096;2022-08-21T10:05:38;101540.80;;;28.63;28.58
47742;BME280;33504;52.066;6.096;2022-08-21T10:08:17;101533.93;;;29.56;27.46
47742;BME280;33504;52.066;6.096;2022-08-21T10:10:44;101529.00;;;29.11;27.11
47742;BME280;33504;52.066;6.096;2022-08-21T10:13:16;101528.13;;;29.81;26.76
47742;BME280;33504;52.066;6.096;2022-08-21T10:15:53;101530.06;;;29.53;26.39
47742;BME280;33504;52.066;6.096;2022-08-21T10:18:29;101531.86;;;29.08;26.39
47742;BME280;33504;52.066;6.096;2022-08-21T10:21:07;101526.13;;;29.20;27.00
47742;BME280;33504;52.066;6.096;2022-08-21T10:23:45;101521.84;;;29.59;26.74
47742;BME280;33504;52.066;6.096;2022-08-21T10:26:26;101522.88;;;29.48;27.16
47742;BME280;33504;52.066;6.096;2022-08-21T10:29:03;101521.81;;;30.08;26.71
47742;BME280;33504;52.066;6.096;2022-08-21T10:31:48;101524.44;;;30.05;25.56
47742;BME280;33504;52.066;6.096;2022-08-21T10:34:30;101524.68;;;30.26;25.86
47742;BME280;33504;52.066;6.096;2022-08-21T10:37:09;101516.93;;;30.19;25.72
47742;BME280;33504;52.066;6.096;2022-08-21T10:39:47;101516.53;;;30.31;25.39
47742;BME280;33504;52.066;6.096;2022-08-21T10:42:33;101514.82;;;30.30;24.65
47742;BME280;33504;52.066;6.096;2022-08-21T10:45:15;101511.84;;;30.61;24.23
47742;BME280;33504;52.066;6.096;2022-08-21T10:47:52;101515.14;;;29.37;25.04
47742;BME280;33504;52.066;6.096;2022-08-21T10:50:34;101515.01;;;29.63;25.72
47742;BME280;33504;52.066;6.096;2022-08-21T10:53:22;101519.91;;;29.80;25.50
47742;BME280;33504;52.066;6.096;2022-08-21T10:56:01;101515.48;;;29.61;26.00
47742;BME280;33504;52.066;6.096;2022-08-21T10:58:34;101519.52;;;29.79;24.98
47742;BME280;33504;52.066;6.096;2022-08-21T11:01:11;101523.62;;;29.56;25.87
47742;BME280;33504;52.066;6.096;2022-08-21T11:03:43;101524.77;;;29.34;25.17
47742;BME280;33504;52.066;6.096;2022-08-21T11:06:17;101524.86;;;29.92;24.93
47742;BME280;33504;52.066;6.096;2022-08-21T11:08:52;101517.17;;;30.16;24.64
47742;BME280;33504;52.066;6.096;2022-08-21T11:11:29;101521.52;;;30.17;24.14
47742;BME280;33504;52.066;6.096;2022-08-21T11:14:04;101522.07;;;29.79;24.10
47742;BME280;33504;52.066;6.096;2022-08-21T11:16:42;101520.12;;;29.82;24.59
47742;BME280;33504;52.066;6.096;2022-08-21T11:19:19;101518.69;;;30.08;24.13
47742;BME280;33504;52.066;6.096;2022-08-21T11:21:56;101520.58;;;30.02;24.44
47742;BME280;33504;52.066;6.096;2022-08-21T11:24:32;101518.61;;;29.69;24.47
47742;BME280;33504;52.066;6.096;2022-08-21T11:27:06;101512.47;;;29.43;25.35
47742;BME280;33504;52.066;6.096;2022-08-21T11:29:39;101513.16;;;29.88;25.46
47742;BME280;33504;52.066;6.096;2022-08-21T11:33:06;101511.79;;;30.81;25.51
47742;BME280;33504;52.066;6.096;2022-08-21T11:35:47;101509.93;;;29.61;25.25
47742;BME280;33504;52.066;6.096;2022-08-21T11:38:26;101507.51;;;29.77;25.06
47742;BME280;33504;52.066;6.096;2022-08-21T11:41:04;101504.03;;;29.51;24.90
47742;BME280;33504;52.066;6.096;2022-08-21T11:43:39;101501.64;;;30.33;24.05
47742;BME280;33504;52.066;6.096;2022-08-21T11:46:16;101501.27;;;30.71;23.76
47742;BME280;33504;52.066;6.096;2022-08-21T11:48:54;101499.78;;;30.62;23.24
47742;BME280;33504;52.066;6.096;2022-08-21T11:51:32;101494.67;;;30.71;23.36
47742;BME280;33504;52.066;6.096;2022-08-21T11:54:05;101493.12;;;29.91;24.09
47742;BME280;33504;52.066;6.096;2022-08-21T11:56:39;101487.35;;;30.32;23.64
47742;BME280;33504;52.066;6.096;2022-08-21T11:59:13;101491.91;;;30.71;23.22
47742;BME280;33504;52.066;6.096;2022-08-21T12:01:45;101485.10;;;31.03;22.95
47742;BME280;33504;52.066;6.096;2022-08-21T12:04:29;101488.64;;;30.68;22.86
47742;BME280;33504;52.066;6.096;2022-08-21T12:07:10;101491.33;;;30.31;24.07
47742;BME280;33504;52.066;6.096;2022-08-21T12:09:39;101492.34;;;30.24;24.02
47742;BME280;33504;52.066;6.096;2022-08-21T12:12:11;101492.55;;;30.41;23.42
47742;BME280;33504;52.066;6.096;2022-08-21T12:14:46;101495.01;;;30.53;23.83
47742;BME280;33504;52.066;6.096;2022-08-21T12:17:18;101495.70;;;31.05;23.42
47742;BME280;33504;52.066;6.096;2022-08-21T12:19:58;101495.23;;;31.25;22.33
47742;BME280;33504;52.066;6.096;2022-08-21T12:22:36;101490.20;;;31.78;21.22
47742;BME280;33504;52.066;6.096;2022-08-21T12:25:07;101496.09;;;31.72;20.74
47742;BME280;33504;52.066;6.096;2022-08-21T12:27:45;101496.85;;;31.94;21.24
47742;BME280;33504;52.066;6.096;2022-08-21T12:30:23;101503.42;;;31.79;20.77
47742;BME280;33504;52.066;6.096;2022-08-21T12:32:57;101502.24;;;31.96;21.10
47742;BME280;33504;52.066;6.096;2022-08-21T12:35:27;101504.10;;;32.02;21.51
47742;BME280;33504;52.066;6.096;2022-08-21T12:38:02;101503.03;;;31.45;21.45
47742;BME280;33504;52.066;6.096;2022-08-21T12:40:39;101500.34;;;31.42;21.63
47742;BME280;33504;52.066;6.096;2022-08-21T12:43:13;101502.41;;;30.87;22.65
47742;BME280;33504;52.066;6.096;2022-08-21T12:45:44;101501.91;;;31.07;22.00
47742;BME280;33504;52.066;6.096;2022-08-21T12:48:16;101503.73;;;30.31;22.30
47742;BME280;33504;52.066;6.096;2022-08-21T12:50:49;101503.44;;;30.71;22.42
47742;BME280;33504;52.066;6.096;2022-08-21T12:53:25;101502.32;;;30.55;22.47
47742;BME280;33504;52.066;6.096;2022-08-21T12:55:54;101501.66;;;30.42;22.82
47742;BME280;33504;52.066;6.096;2022-08-21T12:58:22;101499.50;;;30.56;22.22
47742;BME280;33504;52.066;6.096;2022-08-21T13:00:54;101497.67;;;30.55;23.10
47742;BME280;33504;52.066;6.096;2022-08-21T13:03:23;101497.01;;;30.31;22.80
47742;BME280;33504;52.066;6.096;2022-08-21T13:05:51;101496.69;;;29.99;23.94